Friday, November 24, 2017, 12:30 AM EST
Back to Local

KCQX, Chatham Municipal Airport

Location: Chatham, MA, United States Lat: 41.683
Local Time: 12:30 AM EST ( 5:30 GMT) Lon: -70
Time Zone: US/Eastern Elev: 68 ft

Show me the last for .
Show Coded

Time T Td Feel RH Dir Speed Gust Alt SLP Vis Weather Sky Remarks
2017-11-23 23:52 33 22 30 63 270° 3 - 30.00 30.00 10 CLR 24-hr Min Temp (12am): 30.0°F
24-hr Max Temp (12am): 42.1°F
2017-11-23 22:52 34 23 31 63 280° 3 - 30.00 30.00 10 CLR None
2017-11-23 21:52 32 24 29 72 260° 3 - 29.98 29.99 10 CLR None
2017-11-23 20:52 31 25 27 78 280° 3 - 29.98 29.98 10 CLR None
2017-11-23 19:52 30 24 - 78 - Calm - 29.98 29.99 10 CLR None
2017-11-23 18:52 30 24 - 78 - Calm - 29.98 29.98 10 CLR 6-hr Min Temp (7pm): 30.0°F
6-hr Max Temp (7pm): 42.1°F
2017-11-23 17:52 31 25 - 78 - Calm - 29.99 29.99 10 CLR None
2017-11-23 16:52 34 25 - 69 - Calm - 29.99 29.99 10 CLR None
2017-11-23 15:52 39 26 37 59 240° 3 - 29.99 29.99 10 CLR None
2017-11-23 14:52 40 26 36 57 230° 6 - 29.99 30.00 10 CLR None
2017-11-23 13:52 40 27 36 59 Variable 6 - 30.00 30.00 10 CLR None
2017-11-23 12:52 41 25 36 52 310° 8 - 30.00 30.01 10 CLR 6-hr Min Temp (1pm): 35.1°F
6-hr Max Temp (1pm): 41.0°F
2017-11-23 11:52 40 27 35 59 Variable 7 - 30.01 30.01 10 CLR None
2017-11-23 10:52 40 26 36 57 Variable 6 - 30.01 30.02 10 CLR None
2017-11-23 09:52 39 26 33 59 330° 9 - 30.02 30.03 10 CLR None
2017-11-23 08:52 39 27 34 61 Variable 7 - 30.02 30.02 10 CLR None
2017-11-23 07:52 38 27 34 64 Variable 5 - 30.02 30.03 10 FEW028 None
2017-11-23 06:52 35 27 30 72 Variable 6 - 30.01 30.01 10 FEW028 24-hr Precip Total (7am): 0.83"
6-hr Min Temp (7am): 35.1°F
6-hr Max Temp (7am): 39.9°F
2017-11-23 06:01 35 27 31 72 280° 5 - 30.01 - 10 SCT029 None
2017-11-23 05:52 36 27 31 69 Variable 6 - 30.01 30.01 10 BKN029 None
2017-11-23 04:52 37 27 33 66 Variable 5 - 29.99 29.99 10 SCT030 None
2017-11-23 03:52 38 27 27 64 300° 10 23 29.97 29.98 10 BKN032 None
2017-11-23 02:52 39 28 30 64 320° 10 18 29.95 29.96 10 BKN033 None
2017-11-23 01:52 39 28 29 64 310° 10 20 29.94 29.95 10 FEW032 None
2017-11-23 00:52 40 29 29 64 310° 16 26 29.93 29.93 10 SCT031 6-hr Precip Total (1am): 0.01"
6-hr Min Temp (1am): 39.9°F
6-hr Max Temp (1am): 45.0°F

Support USWX by starting your Amazon purchase here.